Middleton Island, Alaska
Current Conditions -  °F | °C
As of 3:16 AM on Saturday 20 Dec 2014 (Local Time) from PAMD Reporting Station
Overcast Overcast  
Wind Chill: 33°   Ceiling: 1700
Heat Index: 43°   Visibility: 3mi
Dew Point: 41°   Wind: 26mph
Humidity: 93%   Direction: 90°E
Pressure: 28.88"   Gusts: 33mph
Location:  59.43°N, 146.33°W
Report Text: PAMD 201216Z 09023G29KT 3SM FEW010 BKN017 OVC037 06/05 A2888 RMK AO1
Loading
Personal Weather Stations






























Interactive Weather Map New forecast layout! Learn more

10-Day Weather Forecast

Advertisements
Track Severe Weather on mobile